createdAt,value
2023-04-15T00:00:25.825Z,97187.08
2023-04-15T00:05:51.140Z,97183.95
2023-04-15T00:11:13.066Z,97177.86
2023-04-15T00:16:34.863Z,97179.11
2023-04-15T00:21:57.425Z,97178.25
2023-04-15T00:27:19.859Z,97188.61
2023-04-15T00:32:42.552Z,97199.52
2023-04-15T00:38:04.999Z,97205.85
2023-04-15T00:43:27.951Z,97214.16
2023-04-15T00:48:50.689Z,97224.55
2023-04-15T00:54:13.227Z,97235.58
2023-04-15T00:59:36.353Z,97231.83
2023-04-15T01:04:58.278Z,97239.89
2023-04-15T01:10:20.231Z,97244.70
2023-04-15T01:15:42.866Z,97238.38
2023-04-15T01:21:06.012Z,97238.99
2023-04-15T01:26:28.405Z,97240.27
2023-04-15T01:31:55.172Z,97235.35
2023-04-15T01:37:17.280Z,97244.98
2023-04-15T01:42:39.007Z,97243.95
2023-04-15T01:48:01.081Z,97246.77
2023-04-15T01:53:22.580Z,97244.73
2023-04-15T01:58:47.272Z,97250.46
2023-04-15T02:04:16.595Z,97251.71
2023-04-15T02:09:38.917Z,97259.48
2023-04-15T02:15:02.933Z,97264.48
2023-04-15T02:20:24.554Z,97271.10
2023-04-15T02:25:53.598Z,97279.85
2023-04-15T02:31:16.069Z,97285.98
2023-04-15T02:36:37.878Z,97290.77
2023-04-15T02:42:01.695Z,97284.48
2023-04-15T02:47:24.393Z,97293.61
2023-04-15T02:52:49.289Z,97296.20
2023-04-15T02:58:11.117Z,97297.90
2023-04-15T03:03:33.061Z,97307.85
2023-04-15T03:08:55.171Z,97315.39
2023-04-15T03:14:17.901Z,97322.68
2023-04-15T03:19:41.737Z,97332.58
2023-04-15T03:25:04.868Z,97332.58
2023-04-15T03:30:27.772Z,97336.51
2023-04-15T03:35:51.841Z,97334.48
2023-04-15T03:41:13.568Z,97335.34
2023-04-15T03:46:35.506Z,97342.75
2023-04-15T03:51:57.936Z,97353.26
2023-04-15T03:57:19.762Z,97360.80
2023-04-15T04:02:44.105Z,97364.41
2023-04-15T04:08:06.634Z,97367.70
2023-04-15T04:13:28.457Z,97370.47
2023-04-15T04:18:53.297Z,97374.92
2023-04-15T04:24:15.127Z,97373.55
2023-04-15T04:29:37.145Z,97375.77
2023-04-15T04:34:58.985Z,97390.52
2023-04-15T04:40:23.936Z,97393.61
2023-04-15T04:45:45.868Z,97394.27
2023-04-15T04:51:09.215Z,97396.14
2023-04-15T04:56:33.521Z,97394.75
2023-04-15T05:01:55.680Z,97403.14
2023-04-15T05:07:17.782Z,97407.73
2023-04-15T05:12:39.724Z,97406.85
2023-04-15T05:18:01.714Z,97410.95
2023-04-15T05:23:23.775Z,97421.36
2023-04-15T05:28:45.603Z,97420.47
2023-04-15T05:34:08.448Z,97416.65
2023-04-15T05:39:31.172Z,97422.92
2023-04-15T05:44:53.101Z,97427.33
2023-04-15T05:50:15.026Z,97428.52
2023-04-15T05:55:37.158Z,97432.29
2023-04-15T06:00:59.087Z,97431.42
2023-04-15T06:06:21.117Z,97431.79
2023-04-15T06:11:42.947Z,97446.01
2023-04-15T06:17:04.778Z,97445.95
2023-04-15T06:22:26.607Z,97455.54
2023-04-15T06:27:48.633Z,97460.27
2023-04-15T06:33:10.973Z,97467.05
2023-04-15T06:38:32.994Z,97468.50
2023-04-15T06:43:55.725Z,97468.71
2023-04-15T06:49:19.062Z,97469.36
2023-04-15T06:54:41.094Z,97469.23
2023-04-15T07:00:05.935Z,97475.32
2023-04-15T07:05:28.051Z,97473.29
2023-04-15T07:10:49.685Z,97479.04
2023-04-15T07:16:11.688Z,97482.21
2023-04-15T07:21:33.717Z,97485.04
2023-04-15T07:27:00.838Z,97489.15
2023-04-15T07:32:23.027Z,97489.77
2023-04-15T07:37:44.708Z,97490.17
2023-04-15T07:43:06.986Z,97495.45
2023-04-15T07:48:28.415Z,97496.75
2023-04-15T07:53:50.850Z,97494.23
2023-04-15T07:59:13.270Z,97494.45
2023-04-15T08:04:35.424Z,97492.98
2023-04-15T08:09:57.543Z,97492.77
2023-04-15T08:15:22.426Z,97491.57
2023-04-15T08:20:44.402Z,97482.09
2023-04-15T08:26:06.535Z,97486.83
2023-04-15T08:31:29.975Z,97481.34
2023-04-15T08:36:51.701Z,97484.45
2023-04-15T08:42:17.741Z,97485.52
2023-04-15T08:47:40.961Z,97479.66
2023-04-15T08:53:03.003Z,97484.48
2023-04-15T08:58:25.439Z,97487.65
2023-04-15T09:03:49.398Z,97485.11
2023-04-15T09:09:13.408Z,97490.25
2023-04-15T09:14:35.236Z,97486.74
2023-04-15T09:20:10.964Z,97485.47
2023-04-15T09:25:34.934Z,97486.52
2023-04-15T09:31:01.361Z,97490.27
2023-04-15T09:36:23.420Z,97488.15
2023-04-15T09:41:45.454Z,97489.06
2023-04-15T09:47:07.586Z,97486.94
2023-04-15T09:52:30.315Z,97485.55
2023-04-15T09:57:52.453Z,97490.98
2023-04-15T10:03:16.572Z,97486.16
2023-04-15T10:08:38.811Z,97487.92
2023-04-15T10:14:01.165Z,97484.29
2023-04-15T10:19:26.888Z,97484.77
2023-04-15T10:24:49.324Z,97484.27
2023-04-15T10:30:11.951Z,97478.36
2023-04-15T10:35:34.696Z,97479.70
2023-04-15T10:41:17.757Z,97473.73
2023-04-15T10:46:44.741Z,97478.44
2023-04-15T10:52:08.480Z,97480.44
2023-04-15T10:57:39.531Z,97479.94
2023-04-15T11:03:08.882Z,97480.20
2023-04-15T11:08:54.647Z,97477.30
2023-04-15T11:14:16.524Z,97476.23
2023-04-15T11:19:39.557Z,97480.13
2023-04-15T11:25:02.855Z,97481.61
2023-04-15T11:30:27.097Z,97485.84
2023-04-15T11:35:49.258Z,97484.73
2023-04-15T11:41:11.588Z,97483.04
2023-04-15T11:46:33.322Z,97488.91
2023-04-15T11:51:55.351Z,97492.27
2023-04-15T11:57:17.382Z,97490.02
2023-04-15T12:02:39.870Z,97490.31
2023-04-15T12:08:02.041Z,97496.67
2023-04-15T12:13:24.169Z,97494.61
2023-04-15T12:18:47.362Z,97497.84
2023-04-15T12:24:10.336Z,97507.35
2023-04-15T12:29:32.894Z,97522.80
2023-04-15T12:34:54.799Z,97523.87
2023-04-15T12:40:16.731Z,97524.92
2023-04-15T12:45:38.713Z,97529.54
2023-04-15T12:51:04.469Z,97529.08
2023-04-15T12:56:27.839Z,97529.11
2023-04-15T13:01:50.460Z,97524.42
2023-04-15T13:07:14.210Z,97523.70
2023-04-15T13:12:36.921Z,97526.54
2023-04-15T13:17:58.895Z,97528.58
2023-04-15T13:23:20.998Z,97521.39
2023-04-15T13:28:42.873Z,97521.91
2023-04-15T13:34:04.784Z,97529.36
2023-04-15T13:39:27.486Z,97526.10
2023-04-15T13:44:51.506Z,97533.35
2023-04-15T13:50:13.453Z,97534.13
2023-04-15T13:55:36.485Z,97535.90
2023-04-15T14:00:58.101Z,97525.65
2023-04-15T14:06:20.718Z,97529.27
2023-04-15T14:11:43.111Z,97530.32
2023-04-15T14:17:07.450Z,97529.77
2023-04-15T14:22:29.287Z,97535.20
2023-04-15T14:27:51.119Z,97533.41
2023-04-15T14:33:13.335Z,97537.73
2023-04-15T14:38:38.800Z,97546.24
2023-04-15T14:44:01.411Z,97548.16
2023-04-15T14:49:24.483Z,97552.19
2023-04-15T14:54:46.407Z,97556.60
2023-04-15T15:00:10.595Z,97563.84
2023-04-15T15:05:32.542Z,97573.13
2023-04-15T15:10:54.771Z,97578.99
2023-04-15T15:16:16.651Z,97577.48
2023-04-15T15:21:38.790Z,97584.31
2023-04-15T15:27:00.659Z,97589.18
2023-04-15T15:32:23.609Z,97591.10
2023-04-15T15:37:46.340Z,97591.77
2023-04-15T15:43:08.375Z,97588.80
2023-04-15T15:48:30.585Z,97594.94
2023-04-15T15:53:52.417Z,97595.26
2023-04-15T15:59:14.047Z,97602.09
2023-04-15T16:04:36.101Z,97607.76
2023-04-15T16:09:57.844Z,97614.57
2023-04-15T16:15:19.729Z,97607.56
2023-04-15T16:20:41.959Z,97607.11
2023-04-15T16:26:04.690Z,97608.46
2023-04-15T16:31:26.648Z,97612.52
2023-04-15T16:36:48.817Z,97621.16
2023-04-15T16:42:10.800Z,97638.33
2023-04-15T16:47:33.991Z,97643.27
2023-04-15T16:52:56.257Z,97651.77
2023-04-15T16:58:17.870Z,97659.45
2023-04-15T17:03:40.390Z,97672.54
2023-04-15T17:09:02.806Z,97682.76
2023-04-15T17:14:24.829Z,97695.35
2023-04-15T17:19:48.912Z,97703.39
2023-04-15T17:25:11.129Z,97708.33
2023-04-15T17:30:33.560Z,97730.00
2023-04-15T17:35:55.689Z,97746.43
2023-04-15T17:41:17.692Z,97761.35
2023-04-15T17:46:39.615Z,97769.26
2023-04-15T17:52:01.885Z,97780.08
2023-04-15T17:57:25.318Z,97795.14
2023-04-15T18:02:48.900Z,97796.27
2023-04-15T18:08:11.288Z,97811.63
2023-04-15T18:13:33.110Z,97842.41
2023-04-15T18:18:54.739Z,97863.37
2023-04-15T18:24:16.867Z,97872.48
2023-04-15T18:29:43.162Z,97873.52
2023-04-15T18:35:06.255Z,97876.41
2023-04-15T18:40:28.982Z,97873.65
2023-04-15T18:45:54.758Z,97885.02
2023-04-15T18:51:16.959Z,97893.09
2023-04-15T18:56:39.909Z,97896.36
2023-04-15T19:02:06.606Z,97904.09
2023-04-15T19:07:30.578Z,97913.02
2023-04-15T19:12:54.126Z,97925.73
2023-04-15T19:18:16.841Z,97937.23
2023-04-15T19:23:39.276Z,97937.59
2023-04-15T19:29:01.355Z,97932.09
2023-04-15T19:34:25.072Z,97931.23
2023-04-15T19:39:47.171Z,97932.44
2023-04-15T19:45:09.821Z,97937.40
2023-04-15T19:50:32.638Z,97937.41
2023-04-15T19:55:54.488Z,97935.52
2023-04-15T20:01:16.519Z,97937.91
2023-04-15T20:06:38.530Z,97936.20
2023-04-15T20:12:48.155Z,97937.75
2023-04-15T20:17:44.369Z,97937.91
2023-04-15T20:23:06.244Z,97935.34
2023-04-15T20:28:28.443Z,97939.28
2023-04-15T20:33:50.238Z,97941.35
2023-04-15T20:39:12.074Z,97938.94
2023-04-15T20:44:34.704Z,97937.73
2023-04-15T20:49:56.648Z,97944.41
2023-04-15T20:55:18.876Z,97955.73
2023-04-15T21:00:40.481Z,97962.72
2023-04-15T21:06:02.432Z,97970.60
2023-04-15T21:11:42.978Z,97979.34
2023-04-15T21:17:10.595Z,97982.23
2023-04-15T21:22:33.002Z,97985.16
2023-04-15T21:27:54.928Z,97983.10
2023-04-15T21:33:20.369Z,97980.52
2023-04-15T21:38:42.414Z,97990.96
2023-04-15T21:44:04.461Z,97996.77
2023-04-15T21:49:26.254Z,98003.59
2023-04-15T21:54:48.091Z,98012.11
2023-04-15T22:00:11.016Z,98014.64
2023-04-15T22:05:32.550Z,98018.33
2023-04-15T22:10:54.972Z,98018.08
2023-04-15T22:16:16.975Z,98023.52
2023-04-15T22:21:39.248Z,98034.43
2023-04-15T22:27:02.369Z,98043.11
2023-04-15T22:32:24.522Z,98060.08
2023-04-15T22:37:46.337Z,98065.16
2023-04-15T22:43:08.459Z,98076.64
2023-04-15T22:48:30.583Z,98081.75
2023-04-15T22:53:52.396Z,98083.55
2023-04-15T22:59:14.572Z,98090.66
2023-04-15T23:04:36.592Z,98093.18
2023-04-15T23:10:00.526Z,98100.84
2023-04-15T23:15:22.643Z,98103.65
2023-04-15T23:20:46.179Z,98103.38
2023-04-15T23:26:09.410Z,98110.27
2023-04-15T23:31:32.187Z,98117.56
2023-04-15T23:36:54.179Z,98126.11
2023-04-15T23:42:16.088Z,98126.52
2023-04-15T23:47:40.253Z,98126.63
2023-04-15T23:53:02.220Z,98131.40
2023-04-15T23:58:24.354Z,98134.92
